Time;durP1;ratioP1;P1;durP2;ratioP2;P2;SDS_P1;SDS_P2;PMS_P1;PMS_P2;Temp;Humidity;BMP_temperature;BMP_pressure;BME280_temperature;BME280_humidity;BME280_pressure;Samples;Min_cycle;Max_cycle;Signal;HPM_P1;HPM_P2
2022/02/17 00:00:26;;;;;;;44.25;7.03;;;;;;;8.97;98.83;99312.75;5013333;28;20121;-85
2022/02/17 00:02:53;;;;;;;30.77;5.63;;;;;;;8.98;99.19;99304.63;5012888;28;20038;-78
2022/02/17 00:05:20;;;;;;;29.88;4.97;;;;;;;9.04;99.03;99320.91;5012785;28;20037;-85
2022/02/17 00:07:46;;;;;;;31.48;5.97;;;;;;;9.04;98.73;99311.09;5012939;28;20036;-83
2022/02/17 00:10:12;;;;;;;39.92;6.20;;;;;;;9.06;98.55;99302.97;5012425;28;20109;-83
2022/02/17 00:12:37;;;;;;;50.08;7.07;;;;;;;9.11;97.84;99321.91;5013212;28;20460;-81
2022/02/17 00:15:03;;;;;;;43.78;6.40;;;;;;;9.03;98.95;99380.25;5011093;28;20117;-80
2022/02/17 00:17:29;;;;;;;44.40;6.03;;;;;;;8.83;100.00;99381.38;5012793;28;20034;-75
2022/02/17 00:19:54;;;;;;;39.83;6.45;;;;;;;8.64;100.00;99371.91;5012327;28;20056;-78
2022/02/17 00:22:19;;;;;;;35.88;6.30;;;;;;;8.44;100.00;99381.97;5010891;28;20445;-78
2022/02/17 00:24:45;;;;;;;30.00;5.25;;;;;;;8.28;100.00;99369.47;5012708;28;20046;-84
2022/02/17 00:27:11;;;;;;;33.22;5.75;;;;;;;8.14;100.00;99367.41;5012404;28;20104;-83
2022/02/17 00:29:36;;;;;;;32.22;5.22;;;;;;;8.04;97.98;99366.72;5012620;28;20458;-82
2022/02/17 00:32:02;;;;;;;35.55;5.10;;;;;;;8.01;96.54;99351.94;5012879;28;20056;-81
2022/02/17 00:34:27;;;;;;;23.90;4.18;;;;;;;7.90;97.25;99389.31;5010851;28;20063;-83
2022/02/17 00:36:53;;;;;;;22.75;4.10;;;;;;;7.86;96.09;99369.44;5011092;28;20054;-77
2022/02/17 00:39:20;;;;;;;28.88;4.47;;;;;;;7.83;96.23;99410.28;5012342;28;20386;-80
2022/02/17 00:41:46;;;;;;;21.75;4.03;;;;;;;7.79;97.52;99379.81;5013003;28;20084;-81
2022/02/17 00:44:13;;;;;;;25.75;3.63;;;;;;;7.73;98.00;99383.09;5012587;28;20416;-80
2022/02/17 00:46:38;;;;;;;26.20;3.47;;;;;;;7.65;98.51;99383.06;5012076;28;20038;-81
2022/02/17 00:49:04;;;;;;;29.77;3.67;;;;;;;7.67;97.68;99400.41;5010771;28;20036;-81
2022/02/17 00:51:29;;;;;;;21.75;3.28;;;;;;;7.67;97.36;99404.88;5012381;28;20168;-81
2022/02/17 00:53:55;;;;;;;26.25;3.75;;;;;;;7.56;98.43;99412.09;5012097;28;20037;-78
2022/02/17 00:56:20;;;;;;;32.42;4.00;;;;;;;7.51;98.73;99418.81;5011955;28;20065;-82
2022/02/17 00:58:45;;;;;;;31.05;4.50;;;;;;;7.59;98.99;99401.19;5010445;28;20026;-81
2022/02/17 01:01:11;;;;;;;42.40;4.57;;;;;;;7.59;99.57;99403.84;5012193;28;20038;-83
2022/02/17 01:03:36;;;;;;;38.75;4.72;;;;;;;7.54;100.00;99418.56;5011602;28;20037;-83
2022/02/17 01:06:01;;;;;;;31.52;4.07;;;;;;;7.59;99.49;99406.50;5011905;28;20026;-83
2022/02/17 01:08:27;;;;;;;28.48;5.00;;;;;;;7.63;98.76;99425.56;5010642;28;20054;-84
2022/02/17 01:10:52;;;;;;;38.80;5.00;;;;;;;7.67;97.96;99423.41;5011589;28;20125;-84
2022/02/17 01:13:20;;;;;;;27.80;4.30;;;;;;;7.73;97.12;99430.75;5011783;28;20097;-84
2022/02/17 01:15:45;;;;;;;39.10;5.80;;;;;;;7.80;95.92;99436.25;5011562;28;20502;-82
2022/02/17 01:18:11;;;;;;;47.42;5.90;;;;;;;7.88;94.46;99442.44;5011566;28;20061;-85
2022/02/17 01:20:37;;;;;;;29.13;4.65;;;;;;;7.85;94.52;99440.13;5011812;28;20052;-84
2022/02/17 01:23:02;;;;;;;34.05;4.93;;;;;;;7.96;94.12;99452.25;5010159;28;20493;-84
2022/02/17 01:25:28;;;;;;;34.20;5.18;;;;;;;7.91;94.09;99468.63;5011795;28;20183;-85
2022/02/17 01:27:54;;;;;;;30.40;4.72;;;;;;;7.91;94.50;99468.63;5011471;28;20100;-84
2022/02/17 01:30:20;;;;;;;30.30;4.88;;;;;;;7.90;95.02;99490.78;5011926;28;20026;-84
2022/02/17 01:32:45;;;;;;;45.30;5.35;;;;;;;7.82;95.62;99488.06;5011680;28;20104;-85
2022/02/17 01:35:10;;;;;;;33.90;5.47;;;;;;;7.77;95.81;99490.34;5011556;28;20108;-85
2022/02/17 01:37:36;;;;;;;29.77;4.63;;;;;;;7.85;95.09;99492.22;5011428;28;20076;-84
2022/02/17 01:40:03;;;;;;;41.70;5.22;;;;;;;7.87;94.26;99498.22;5011777;28;20419;-78
2022/02/17 01:42:28;;;;;;;38.80;7.43;;;;;;;7.93;93.13;99514.31;5011737;28;20078;-83
2022/02/17 01:44:53;;;;;;;31.38;4.90;;;;;;;7.97;91.60;99466.31;5011099;28;20080;-85
2022/02/17 01:47:19;;;;;;;30.70;4.53;;;;;;;7.93;91.08;99506.38;5010366;28;20348;-85
2022/02/17 01:49:47;;;;;;;23.10;3.88;;;;;;;7.91;88.96;99491.59;5011709;28;20049;-85
2022/02/17 01:52:14;;;;;;;24.90;4.32;;;;;;;7.94;86.63;99523.06;5011848;28;20045;-84
2022/02/17 01:54:41;;;;;;;26.77;4.30;;;;;;;7.97;84.42;99508.69;5010061;28;20123;-82
2022/02/17 01:57:15;;;;;;;30.40;5.05;;;;;;;8.10;80.85;99523.19;5010461;28;20036;-82
2022/02/17 01:59:42;;;;;;;24.27;4.22;;;;;;;8.05;81.70;99517.53;5011589;28;20411;-83
2022/02/17 02:02:08;;;;;;;26.08;4.47;;;;;;;8.04;79.70;99526.47;5011039;28;20045;-82
2022/02/17 02:04:33;;;;;;;26.65;5.15;;;;;;;8.06;79.08;99535.09;5011295;28;20034;-83
2022/02/17 02:06:59;;;;;;;27.73;4.53;;;;;;;8.07;78.76;99551.81;5011268;28;20040;-81
2022/02/17 02:09:25;;;;;;;31.05;5.53;;;;;;;7.97;79.64;99564.31;5010410;28;20385;-82
2022/02/17 02:11:51;;;;;;;29.83;5.28;;;;;;;7.84;82.06;99556.78;5010900;28;20073;-83
2022/02/17 02:14:18;;;;;;;37.70;6.70;;;;;;;7.71;84.01;99557.97;5009739;28;20508;-83
2022/02/17 02:16:45;;;;;;;35.67;5.47;;;;;;;7.66;85.45;99557.63;5010856;28;20046;-83
2022/02/17 02:19:11;;;;;;;30.58;5.45;;;;;;;7.69;85.40;99570.56;5010384;28;20037;-81
2022/02/17 02:21:36;;;;;;;39.80;6.10;;;;;;;7.64;85.79;99593.97;5010976;28;20340;-85
2022/02/17 02:24:03;;;;;;;37.25;5.32;;;;;;;7.63;85.60;99602.06;5010542;28;20033;-82
2022/02/17 02:26:28;;;;;;;34.47;5.63;;;;;;;7.62;84.63;99579.25;5010654;28;20058;-84
2022/02/17 02:28:55;;;;;;;26.80;4.60;;;;;;;7.59;83.11;99594.44;5010435;28;20563;-84
2022/02/17 02:31:21;;;;;;;43.78;5.40;;;;;;;7.58;82.31;99598.09;5010120;28;20048;-84
2022/02/17 02:33:46;;;;;;;33.58;5.22;;;;;;;7.64;79.46;99604.56;5010119;28;20124;-82
2022/02/17 02:36:12;;;;;;;34.00;5.35;;;;;;;7.59;78.98;99634.16;5010322;28;20092;-82
2022/02/17 02:38:38;;;;;;;28.70;5.03;;;;;;;7.73;75.31;99642.56;5010365;28;20393;-85
2022/02/17 02:41:04;;;;;;;27.52;5.43;;;;;;;7.75;74.28;99657.31;5009753;28;20121;-81
2022/02/17 02:43:29;;;;;;;25.33;4.65;;;;;;;7.71;74.97;99666.53;5010590;28;20411;-82
2022/02/17 02:45:54;;;;;;;27.58;4.93;;;;;;;7.74;73.27;99663.59;5009951;28;20046;-81
2022/02/17 02:48:20;;;;;;;29.23;4.70;;;;;;;7.73;73.09;99669.88;5010292;28;20427;-82
2022/02/17 02:50:45;;;;;;;38.35;5.45;;;;;;;7.75;72.52;99759.78;5010248;28;20036;-80
2022/02/17 02:53:14;;;;;;;30.05;4.78;;;;;;;7.73;72.51;99672.53;5010200;28;20121;-76
2022/02/17 02:55:48;;;;;;;24.52;4.88;;;;;;;7.75;72.04;99667.09;5010301;28;20478;-85
2022/02/17 02:58:15;;;;;;;27.85;4.47;;;;;;;7.71;72.79;99695.66;5009944;28;20080;-80
2022/02/17 03:00:41;;;;;;;31.60;5.30;;;;;;;7.68;71.73;99682.72;5009723;28;20038;-86
2022/02/17 03:03:07;;;;;;;33.95;4.53;;;;;;;7.67;71.96;99686.34;5009969;28;20060;-82
2022/02/17 03:05:33;;;;;;;38.58;4.80;;;;;;;7.69;71.60;99687.06;5010077;28;20375;-85
2022/02/17 03:07:58;;;;;;;27.40;4.65;;;;;;;7.69;72.25;99691.53;5010303;28;20034;-84
2022/02/17 03:10:24;;;;;;;36.75;5.90;;;;;;;7.69;72.83;99670.34;5009941;28;20390;-83
2022/02/17 03:12:49;;;;;;;29.90;5.47;;;;;;;7.66;73.68;99716.47;5009895;28;20037;-82
2022/02/17 03:15:15;;;;;;;30.08;5.45;;;;;;;7.58;74.23;99711.06;5009959;28;20064;-82
2022/02/17 03:17:41;;;;;;;35.45;5.15;;;;;;;7.61;73.93;99731.13;5009507;28;20132;-83
2022/02/17 03:20:09;;;;;;;46.17;6.05;;;;;;;7.63;74.17;99721.22;5009852;28;20102;-84
2022/02/17 03:22:36;;;;;;;39.08;6.15;;;;;;;7.62;74.75;99724.84;5009650;28;20092;-84
2022/02/17 03:25:04;;;;;;;35.45;5.78;;;;;;;7.53;75.86;99722.09;5009798;28;20104;-84
2022/02/17 03:27:30;;;;;;;29.50;4.80;;;;;;;7.51;75.56;99728.50;5009883;28;20033;-83
2022/02/17 03:29:55;;;;;;;46.40;6.45;;;;;;;7.41;76.61;99723.28;5008355;28;20369;-82
2022/02/17 03:32:21;;;;;;;33.97;4.70;;;;;;;7.36;76.76;99729.00;5011677;28;20316;-84
2022/02/17 03:34:46;;;;;;;43.25;5.85;;;;;;;7.36;77.15;99734.31;5011994;28;20045;-84
2022/02/17 03:37:11;;;;;;;30.25;5.63;;;;;;;7.42;76.27;99754.06;5013354;28;20136;-83
2022/02/17 03:39:37;;;;;;;36.40;5.40;;;;;;;7.45;76.42;99729.94;5013457;28;20105;-83
2022/02/17 03:42:03;;;;;;;37.47;5.75;;;;;;;7.45;76.17;99751.13;5012747;28;20558;-82
2022/02/17 03:44:29;;;;;;;41.65;5.57;;;;;;;7.50;76.44;99769.22;5012914;28;20390;-84
2022/02/17 03:46:55;;;;;;;30.52;5.60;;;;;;;7.39;77.89;99760.47;5013098;28;20060;-84
2022/02/17 03:49:20;;;;;;;38.22;5.75;;;;;;;7.32;78.21;99764.66;5013062;28;20044;-83
2022/02/17 03:51:46;;;;;;;45.10;6.22;;;;;;;7.26;79.00;99785.59;5012842;28;20026;-84
2022/02/17 03:54:11;;;;;;;38.65;5.63;;;;;;;7.20;79.25;99787.81;5013006;28;20104;-83
2022/02/17 03:56:36;;;;;;;38.38;5.65;;;;;;;7.18;78.76;99796.88;5013003;28;20092;-82
2022/02/17 03:59:02;;;;;;;35.35;6.15;;;;;;;7.23;78.26;99797.28;5011613;28;20050;-83
2022/02/17 04:01:29;;;;;;;40.15;6.78;;;;;;;7.29;77.42;99803.81;5012438;28;20200;-83
2022/02/17 04:03:54;;;;;;;34.17;5.47;;;;;;;7.30;77.81;99829.28;5012932;28;20200;-83
2022/02/17 04:06:20;;;;;;;32.38;5.30;;;;;;;7.27;77.94;99817.19;5012603;28;20494;-81
2022/02/17 04:08:45;;;;;;;36.97;5.88;;;;;;;7.22;78.89;99827.34;5012789;28;20038;-82
2022/02/17 04:11:10;;;;;;;29.58;5.28;;;;;;;7.24;78.06;99823.59;5012963;28;20025;-82
2022/02/17 04:13:36;;;;;;;33.75;5.22;;;;;;;7.21;78.15;99820.38;5012680;28;20045;-84
2022/02/17 04:16:01;;;;;;;35.85;5.90;;;;;;;7.23;77.38;99837.78;5012975;28;20064;-83
2022/02/17 04:18:27;;;;;;;29.27;4.90;;;;;;;7.31;76.19;99860.91;5012296;28;20026;-83
2022/02/17 04:20:52;;;;;;;37.05;5.55;;;;;;;7.33;76.31;99869.56;5012861;28;20057;-83
2022/02/17 04:23:17;;;;;;;35.00;4.63;;;;;;;7.35;75.64;99846.41;5012489;28;20102;-82
2022/02/17 04:25:43;;;;;;;24.77;4.45;;;;;;;7.35;75.59;99888.75;5012184;28;20038;-82
2022/02/17 04:28:08;;;;;;;27.75;5.00;;;;;;;7.39;74.76;99884.84;5012729;28;20325;-83
2022/02/17 04:30:33;;;;;;;31.52;4.38;;;;;;;7.40;74.59;99909.50;5011768;28;20123;-83
2022/02/17 04:33:05;;;;;;;29.75;5.43;;;;;;;7.46;74.56;99889.56;5014605;28;20371;-83
2022/02/17 04:35:30;;;;;;;35.72;6.07;;;;;;;7.44;75.32;99910.06;5013194;28;20026;-82
2022/02/17 04:37:57;;;;;;;38.17;5.63;;;;;;;7.41;76.13;99912.00;5012202;28;20037;-83
2022/02/17 04:42:18;;;;;;;45.05;6.78;;;;;;;7.37;76.99;99897.38;5012002;28;20374;-78
2022/02/17 04:43:08;;;;;;;50.13;7.03;;;;;;;7.29;79.38;99915.78;5011892;28;20463;-83
2022/02/17 04:45:33;;;;;;;46.85;7.63;;;;;;;7.32;80.78;99928.72;5012479;28;20100;-83
2022/02/17 04:48:02;;;;;;;38.40;6.35;;;;;;;7.34;81.09;99924.13;5012123;28;20381;-83
2022/02/17 04:50:28;;;;;;;53.90;7.47;;;;;;;7.37;81.31;99909.78;5012087;28;20049;-83
2022/02/17 04:52:53;;;;;;;50.92;7.00;;;;;;;7.41;81.08;99913.81;5010588;28;20046;-84
2022/02/17 04:55:19;;;;;;;48.95;6.97;;;;;;;7.43;80.13;99930.38;5011962;28;20041;-83
2022/02/17 04:57:44;;;;;;;37.58;6.82;;;;;;;7.53;77.65;99948.91;5011942;28;20030;-84
2022/02/17 05:00:10;;;;;;;44.05;5.93;;;;;;;7.57;77.53;99950.31;5011841;28;20073;-84
2022/02/17 05:02:36;;;;;;;41.33;6.15;;;;;;;7.65;75.21;99974.25;5011603;28;20033;-83
2022/02/17 05:05:02;;;;;;;33.65;5.30;;;;;;;7.83;70.66;99961.13;5011934;28;20133;-83
2022/02/17 05:07:27;;;;;;;27.80;4.75;;;;;;;7.98;68.41;99974.75;5012354;28;20514;-83
2022/02/17 05:09:52;;;;;;;24.67;4.60;;;;;;;8.09;67.75;99963.16;5011840;28;20354;-82
2022/02/17 05:12:18;;;;;;;23.50;4.40;;;;;;;8.09;68.50;99979.03;5012038;28;20030;-82
2022/02/17 05:14:43;;;;;;;28.95;4.45;;;;;;;8.07;69.32;99971.25;5011779;28;20082;-83
2022/02/17 05:17:08;;;;;;;35.40;5.35;;;;;;;8.02;69.75;100015.88;5011738;28;20112;-84
2022/02/17 05:19:34;;;;;;;29.80;4.70;;;;;;;7.98;69.50;99997.78;5012081;28;20106;-82
2022/02/17 05:21:59;;;;;;;25.08;5.18;;;;;;;7.94;68.88;100019.25;5011875;28;20087;-83
2022/02/17 05:24:25;;;;;;;33.88;5.55;;;;;;;7.90;68.94;100015.22;5011447;28;20466;-79
2022/02/17 05:26:50;;;;;;;25.25;4.88;;;;;;;7.83;68.97;100015.91;5011556;28;20045;-83
2022/02/17 05:29:15;;;;;;;21.65;4.32;;;;;;;7.74;68.59;100036.97;5011232;28;20419;-83
2022/02/17 05:31:41;;;;;;;26.27;4.05;;;;;;;7.75;68.29;100028.03;5011345;28;20037;-83
2022/02/17 05:34:06;;;;;;;25.80;4.85;;;;;;;7.77;68.83;100055.22;5011531;28;20034;-83
2022/02/17 05:36:31;;;;;;;34.30;4.80;;;;;;;7.66;70.37;100054.53;5011630;28;20514;-83
2022/02/17 05:38:57;;;;;;;36.00;4.75;;;;;;;7.52;71.56;100059.25;5011274;28;20034;-83
2022/02/17 05:41:22;;;;;;;34.65;7.05;;;;;;;7.45;73.43;100073.19;5011062;28;20050;-83
2022/02/17 05:43:47;;;;;;;34.67;6.45;;;;;;;7.32;75.00;100078.75;5009802;28;20452;-83
2022/02/17 05:46:13;;;;;;;35.80;5.70;;;;;;;7.24;75.14;100090.03;5009645;28;20045;-82
2022/02/17 05:48:38;;;;;;;37.35;6.45;;;;;;;7.15;75.88;100089.03;5011057;28;20030;-82
2022/02/17 05:51:04;;;;;;;27.23;5.38;;;;;;;7.14;75.55;100089.16;5010665;28;20489;-84
2022/02/17 05:53:29;;;;;;;31.77;4.50;;;;;;;7.17;75.57;100083.59;5025790;28;20069;-79
2022/02/17 05:55:54;;;;;;;31.00;5.18;;;;;;;7.16;75.51;100105.72;5010113;28;20095;-83
2022/02/17 05:58:20;;;;;;;37.50;5.30;;;;;;;7.10;75.15;100111.56;5010752;28;20041;-85
2022/02/17 06:00:45;;;;;;;33.05;5.47;;;;;;;7.03;74.78;100100.66;5010694;28;20030;-84
2022/02/17 06:03:10;;;;;;;36.70;5.45;;;;;;;7.03;74.20;100113.88;5010547;28;20196;-84
2022/02/17 06:05:36;;;;;;;23.83;5.13;;;;;;;7.06;74.10;100121.53;5010336;28;20112;-84
2022/02/17 06:08:01;;;;;;;34.00;5.70;;;;;;;7.07;74.58;100118.75;5010367;28;20048;-81
2022/02/17 06:10:27;;;;;;;34.40;4.18;;;;;;;7.12;74.79;100118.41;5010424;28;20125;-84
2022/02/17 06:12:52;;;;;;;32.65;4.63;;;;;;;7.16;74.68;100130.34;5010329;28;20064;-80
2022/02/17 06:15:18;;;;;;;31.10;4.35;;;;;;;7.22;74.04;100132.47;5010613;28;20026;-86
2022/02/17 06:17:44;;;;;;;29.75;5.72;;;;;;;7.18;74.32;100136.38;5008484;28;20125;-83
2022/02/17 06:20:10;;;;;;;25.60;4.43;;;;;;;7.18;74.12;100146.09;5025203;28;20143;-79
2022/02/17 06:22:50;;;;;;;29.08;4.78;;;;;;;7.15;73.60;100152.50;5010069;28;20034;-84
2022/02/17 06:25:17;;;;;;;19.17;4.22;;;;;;;7.20;73.00;100152.94;5010509;28;20107;-85
2022/02/17 06:27:43;;;;;;;28.70;4.60;;;;;;;7.18;73.33;100167.25;5010115;28;20069;-83
2022/02/17 06:30:09;;;;;;;24.73;4.05;;;;;;;7.11;73.84;100168.78;5008491;28;20064;-83
2022/02/17 06:32:34;;;;;;;22.48;3.75;;;;;;;7.12;73.42;100167.81;5010266;28;20085;-79
2022/02/17 06:35:00;;;;;;;24.98;4.32;;;;;;;7.14;72.94;100176.47;5010146;28;20423;-83
2022/02/17 06:37:25;;;;;;;31.70;4.10;;;;;;;7.15;72.55;100200.13;5008586;28;20505;-87
2022/02/17 06:39:51;;;;;;;26.52;4.15;;;;;;;7.14;71.63;100189.69;5009132;28;20045;-79
2022/02/17 06:42:16;;;;;;;27.40;5.28;;;;;;;7.11;71.75;100200.53;5009601;28;20205;-80
2022/02/17 06:44:42;;;;;;;24.63;3.67;;;;;;;7.09;70.44;100208.59;5009867;28;20185;-88
2022/02/17 06:47:07;;;;;;;19.08;3.30;;;;;;;7.08;70.05;100225.44;5010149;28;20030;-81
2022/02/17 06:49:34;;;;;;;22.27;3.90;;;;;;;7.03;70.88;100215.25;5009551;28;20098;-87
2022/02/17 06:52:01;;;;;;;24.92;4.40;;;;;;;6.98;71.35;100232.47;5010145;28;20034;-83
2022/02/17 06:54:26;;;;;;;21.38;4.03;;;;;;;6.86;71.95;100231.72;5009482;28;20490;-82
2022/02/17 06:56:52;;;;;;;27.58;4.10;;;;;;;6.82;72.28;100240.88;5009328;28;20118;-78
2022/02/17 06:59:17;;;;;;;17.65;2.92;;;;;;;6.81;72.28;100239.22;5008475;28;20029;-84
2022/02/17 07:01:42;;;;;;;33.05;4.85;;;;;;;6.85;71.38;100261.75;5009431;28;20394;-85
2022/02/17 07:04:10;;;;;;;19.05;3.10;;;;;;;6.85;70.55;100262.63;5010023;28;20465;-85
2022/02/17 07:06:36;;;;;;;19.45;3.58;;;;;;;6.86;68.79;100264.28;5012406;28;20037;-84
2022/02/17 07:09:01;;;;;;;16.50;4.45;;;;;;;6.87;68.20;100294.22;5013572;28;20429;-84
2022/02/17 07:11:27;;;;;;;25.10;3.88;;;;;;;6.87;68.76;100295.06;5014199;28;20125;-84
2022/02/17 07:13:52;;;;;;;25.95;4.18;;;;;;;6.82;68.15;100283.19;5013257;28;20034;-82
2022/02/17 07:16:17;;;;;;;14.45;2.90;;;;;;;6.80;68.81;100277.19;5013693;28;20425;-84
2022/02/17 07:18:46;;;;;;;18.35;3.15;;;;;;;6.79;68.75;100305.44;5014216;28;20149;-83
2022/02/17 07:21:12;;;;;;;24.85;3.78;;;;;;;6.75;69.46;100308.44;5013423;28;20513;-81
2022/02/17 07:23:37;;;;;;;27.50;4.43;;;;;;;6.66;71.21;100328.59;5013769;28;20112;-83
2022/02/17 07:26:03;;;;;;;21.88;4.00;;;;;;;6.67;70.92;100317.88;5013850;28;20435;-87
2022/02/17 07:28:28;;;;;;;29.38;4.45;;;;;;;6.65;71.62;100311.84;5013346;28;20030;-82
2022/02/17 07:30:54;;;;;;;24.65;3.53;;;;;;;6.66;71.04;100323.28;5013644;28;20509;-82
2022/02/17 07:33:20;;;;;;;23.23;4.63;;;;;;;6.63;71.16;100320.91;5013791;28;20033;-83
2022/02/17 07:35:45;;;;;;;20.17;3.72;;;;;;;6.63;71.00;100357.91;5013273;28;20021;-80
2022/02/17 07:38:12;;;;;;;13.80;2.45;;;;;;;6.75;69.90;100343.69;5013196;28;20048;-78
2022/02/17 07:40:38;;;;;;;22.52;3.75;;;;;;;6.78;69.16;100337.31;5013349;28;20339;-79
2022/02/17 07:43:04;;;;;;;26.33;4.10;;;;;;;6.76;69.77;100347.97;5013035;28;20050;-81
2022/02/17 07:45:29;;;;;;;16.30;2.60;;;;;;;6.79;68.59;100362.75;5013898;28;20135;-81
2022/02/17 07:47:55;;;;;;;24.88;4.13;;;;;;;6.82;68.23;100351.94;5013226;28;20041;-79
2022/02/17 07:50:24;;;;;;;19.92;3.38;;;;;;;6.86;68.48;100366.59;5013275;28;20512;-87
2022/02/17 07:52:50;;;;;;;23.10;3.28;;;;;;;6.87;68.23;100360.34;5013463;28;20037;-82
2022/02/17 07:55:15;;;;;;;17.90;3.10;;;;;;;6.94;68.68;100390.63;5013348;28;20033;-83
2022/02/17 07:57:41;;;;;;;18.73;3.40;;;;;;;6.91;69.21;100385.53;5013630;28;20038;-81
2022/02/17 08:00:09;;;;;;;22.08;3.67;;;;;;;6.94;69.37;100397.69;5013298;28;20061;-82
2022/02/17 08:02:34;;;;;;;20.52;3.50;;;;;;;6.95;68.72;100405.50;5013232;28;20111;-86
2022/02/17 08:05:01;;;;;;;15.10;2.85;;;;;;;6.95;67.79;100409.97;5013224;28;20105;-85
2022/02/17 08:07:27;;;;;;;21.42;3.08;;;;;;;6.97;66.06;100416.81;5013047;28;20374;-83
2022/02/17 08:09:53;;;;;;;19.35;3.05;;;;;;;7.02;64.93;100458.75;5013281;28;20109;-79
2022/02/17 08:12:19;;;;;;;21.27;2.33;;;;;;;7.06;63.77;100405.47;5013297;28;20449;-79
2022/02/17 08:14:45;;;;;;;17.92;3.20;;;;;;;7.10;64.51;100435.13;5013294;28;20038;-82
2022/02/17 08:17:10;;;;;;;20.75;2.53;;;;;;;7.15;63.25;100443.56;5012290;28;20032;-84
2022/02/17 08:19:36;;;;;;;18.15;3.20;;;;;;;7.17;63.37;100464.59;5013728;28;20129;-81
2022/02/17 08:22:02;;;;;;;16.08;3.05;;;;;;;7.20;62.59;100465.16;5012986;28;20030;-86
2022/02/17 08:24:28;;;;;;;14.88;2.95;;;;;;;7.20;62.76;100456.41;5013169;28;20038;-82
2022/02/17 08:26:56;;;;;;;13.05;2.30;;;;;;;7.23;62.67;100450.84;5012814;28;20522;-83
2022/02/17 08:29:26;;;;;;;15.75;2.47;;;;;;;7.27;61.80;100467.31;5013089;28;20026;-84
2022/02/17 08:31:51;;;;;;;22.80;3.17;;;;;;;7.29;61.53;100476.81;5012271;28;20033;-78
2022/02/17 08:34:17;;;;;;;11.68;2.47;;;;;;;7.33;61.49;100478.25;5013027;28;20431;-82
2022/02/17 08:36:43;;;;;;;22.70;3.60;;;;;;;7.39;61.63;100490.13;5015163;28;20118;-80
2022/02/17 08:39:09;;;;;;;14.70;3.22;;;;;;;7.37;62.09;100468.22;5011004;28;20080;-80
2022/02/17 08:41:36;;;;;;;18.23;2.80;;;;;;;7.37;62.45;100481.47;5012520;28;20165;-82
2022/02/17 08:44:01;;;;;;;19.20;3.20;;;;;;;7.45;63.64;100480.81;5012322;28;20041;-81
2022/02/17 08:46:27;;;;;;;14.50;2.92;;;;;;;7.47;64.07;100482.38;5012160;28;20044;-84
2022/02/17 08:48:53;;;;;;;16.30;2.63;;;;;;;7.52;64.01;100504.00;5012752;28;20430;-83
2022/02/17 08:51:20;;;;;;;20.95;3.00;;;;;;;7.60;64.21;100508.69;5011942;28;20469;-81
2022/02/17 08:53:46;;;;;;;16.67;3.17;;;;;;;7.67;64.56;100493.09;5012170;28;20116;-81
2022/02/17 08:56:11;;;;;;;18.80;3.63;;;;;;;7.81;64.27;100506.03;5012279;28;20094;-80
2022/02/17 08:58:37;;;;;;;15.00;3.10;;;;;;;7.87;64.20;100512.63;5011965;28;20365;-81
2022/02/17 09:01:02;;;;;;;18.70;2.63;;;;;;;8.05;63.92;100510.25;5012969;28;20133;-84
2022/02/17 09:03:28;;;;;;;18.00;3.25;;;;;;;8.04;64.39;100519.16;5012419;28;20045;-82
2022/02/17 09:05:53;;;;;;;21.88;3.85;;;;;;;8.02;64.08;100499.91;5012514;28;20018;-84
2022/02/17 09:08:18;;;;;;;26.42;3.53;;;;;;;8.05;64.93;100524.31;5010233;28;20026;-81
2022/02/17 09:10:44;;;;;;;14.23;3.30;;;;;;;8.20;63.91;100534.59;5012059;28;20073;-87
2022/02/17 09:13:09;;;;;;;20.00;3.97;;;;;;;8.29;63.89;100547.06;5011913;28;20033;-85
2022/02/17 09:15:38;;;;;;;18.55;3.10;;;;;;;8.38;64.28;100551.56;5011740;28;20022;-81
2022/02/17 09:18:04;;;;;;;24.88;3.47;;;;;;;8.38;62.92;100566.63;5009914;28;20117;-81
2022/02/17 09:20:30;;;;;;;15.77;2.92;;;;;;;8.54;61.59;100566.16;5011565;28;20101;-81
2022/02/17 09:22:55;;;;;;;15.65;3.05;;;;;;;8.61;59.63;100552.28;5011416;28;20030;-79
2022/02/17 09:25:21;;;;;;;19.48;3.60;;;;;;;8.64;59.81;100554.66;5011353;28;20056;-79
2022/02/17 09:27:46;;;;;;;16.70;2.83;;;;;;;8.77;59.39;100559.72;5011104;28;20032;-80
2022/02/17 09:30:12;;;;;;;12.32;2.70;;;;;;;9.16;57.80;100580.22;5009964;28;20326;-81
2022/02/17 09:32:37;;;;;;;16.13;2.90;;;;;;;9.13;57.04;100581.31;5011486;28;20465;-83
2022/02/17 09:35:03;;;;;;;12.88;2.80;;;;;;;9.72;54.11;100573.44;5010962;28;20041;-81
2022/02/17 09:37:28;;;;;;;18.05;3.50;;;;;;;9.94;53.81;100567.00;5011153;28;20472;-79
2022/02/17 09:39:55;;;;;;;16.40;3.00;;;;;;;10.27;53.85;100580.81;5011054;28;20041;-82
2022/02/17 09:42:20;;;;;;;16.13;2.75;;;;;;;11.02;51.50;100580.00;5011161;28;20127;-87
2022/02/17 09:44:45;;;;;;;18.70;2.75;;;;;;;11.63;49.60;100570.47;5011620;28;20430;-87
2022/02/17 09:47:12;;;;;;;19.08;3.10;;;;;;;12.17;48.42;100579.28;5011400;28;20041;-83
2022/02/17 09:49:39;;;;;;;16.85;3.08;;;;;;;13.27;45.42;100593.81;5010988;28;20049;-84
2022/02/17 09:52:05;;;;;;;15.25;3.35;;;;;;;13.60;43.89;100600.13;5011445;28;20520;-87
2022/02/17 09:54:30;;;;;;;14.50;2.83;;;;;;;13.59;43.34;100614.50;5010421;28;20038;-80
2022/02/17 09:56:56;;;;;;;15.90;2.65;;;;;;;13.58;44.30;100608.31;5011142;28;20550;-82
2022/02/17 09:59:23;;;;;;;11.85;3.10;;;;;;;13.25;44.37;100634.06;5011024;28;20026;-82
2022/02/17 10:02:04;;;;;;;18.60;3.40;;;;;;;13.57;45.03;100622.66;5010306;28;20040;-79
2022/02/17 10:04:30;;;;;;;12.63;3.00;;;;;;;13.93;44.11;100632.25;5010749;28;20030;-83
2022/02/17 10:06:58;;;;;;;12.88;3.22;;;;;;;14.04;43.32;100639.94;5011234;28;20089;-83
2022/02/17 10:09:37;;;;;;;18.75;3.00;;;;;;;13.30;44.99;100630.91;5010786;28;20084;-83
2022/02/17 10:12:03;;;;;;;20.75;3.88;;;;;;;13.23;45.82;100647.59;5011343;28;20026;-84
2022/02/17 10:14:28;;;;;;;14.05;3.30;;;;;;;13.16;45.86;100651.88;5012336;28;20021;-84
2022/02/17 10:17:00;;;;;;;15.50;3.58;;;;;;;13.38;45.13;100653.19;5010975;28;20026;-82
2022/02/17 10:19:33;;;;;;;18.23;3.28;;;;;;;13.34;45.57;100654.50;5011235;28;20069;-84
2022/02/17 10:22:08;;;;;;;15.98;3.35;;;;;;;13.38;46.00;100669.22;5011059;28;20085;-82
2022/02/17 10:24:39;;;;;;;15.00;2.97;;;;;;;13.31;45.67;100636.09;5010710;28;20073;-84
2022/02/17 10:27:07;;;;;;;17.90;3.28;;;;;;;13.38;46.54;100650.50;5010869;28;20117;-86
2022/02/17 10:29:34;;;;;;;14.65;2.78;;;;;;;13.26;45.41;100662.47;5010884;28;20041;-85
2022/02/17 10:32:12;;;;;;;9.70;2.97;;;;;;;13.78;45.13;100677.53;5010752;28;20057;-77
2022/02/17 10:34:42;;;;;;;16.67;3.95;;;;;;;13.79;45.33;100668.47;5010947;28;20080;-84
2022/02/17 10:37:09;;;;;;;14.60;2.85;;;;;;;13.92;44.57;100684.88;5011060;28;20155;-83
2022/02/17 10:39:37;;;;;;;13.23;3.33;;;;;;;13.98;44.56;100691.44;5010903;28;20037;-82
2022/02/17 10:42:10;;;;;;;15.25;3.42;;;;;;;13.80;45.79;100690.72;5010281;28;20065;-78
2022/02/17 10:44:36;;;;;;;15.35;3.53;;;;;;;14.44;45.36;100705.16;5010928;28;20026;-85
2022/02/17 10:47:19;;;;;;;20.27;3.45;;;;;;;14.85;43.56;100709.66;5010561;28;20455;-81
2022/02/17 10:49:49;;;;;;;19.08;3.35;;;;;;;13.66;45.43;100708.22;5010436;28;20468;-80
2022/02/17 10:52:29;;;;;;;20.70;3.42;;;;;;;13.52;46.54;100699.81;5010506;28;20113;-81
2022/02/17 10:55:10;;;;;;;17.40;3.20;;;;;;;13.28;46.09;100719.25;5010467;28;20490;-82
2022/02/17 10:57:36;;;;;;;13.45;3.25;;;;;;;13.27;46.69;100685.53;5010163;28;20164;-80
2022/02/17 11:00:16;;;;;;;16.65;3.88;;;;;;;12.70;49.03;100732.25;5010523;28;20218;-77
2022/02/17 11:02:42;;;;;;;18.95;3.28;;;;;;;12.39;49.14;100726.50;5009838;28;20030;-80
2022/02/17 11:05:09;;;;;;;18.70;3.17;;;;;;;12.25;49.48;100743.88;5009409;28;20168;-80
2022/02/17 11:07:39;;;;;;;20.02;3.42;;;;;;;11.42;51.23;100746.56;5009465;28;20033;-75
2022/02/17 11:10:05;;;;;;;17.00;3.30;;;;;;;11.74;51.26;100740.00;5009514;28;20074;-77
2022/02/17 11:12:31;;;;;;;23.08;3.38;;;;;;;11.71;51.92;100745.63;5009520;28;20045;-78
2022/02/17 11:15:04;;;;;;;16.10;3.28;;;;;;;11.58;51.68;100741.44;5009513;28;20034;-80
2022/02/17 11:17:34;;;;;;;17.92;4.10;;;;;;;11.66;51.02;100751.41;5009844;28;20037;-80
2022/02/17 11:20:01;;;;;;;19.08;3.38;;;;;;;10.95;53.58;100750.09;5009709;28;20088;-85
2022/02/17 11:22:27;;;;;;;20.30;3.30;;;;;;;10.58;55.40;100759.69;5008817;28;20104;-84